createdAt,value
2022-08-17T00:02:25.857Z,98015.19
2022-08-17T00:04:54.066Z,98021.25
2022-08-17T00:07:22.107Z,98022.63
2022-08-17T00:09:49.309Z,98026.09
2022-08-17T00:12:43.136Z,98020.00
2022-08-17T00:15:03.955Z,98025.44
2022-08-17T00:17:31.010Z,98021.16
2022-08-17T00:19:58.072Z,98015.09
2022-08-17T00:22:32.676Z,98017.72
2022-08-17T00:25:02.503Z,98011.63
2022-08-17T00:27:29.530Z,98015.28
2022-08-17T00:29:56.707Z,98007.53
2022-08-17T00:33:12.041Z,98016.25
2022-08-17T00:35:10.774Z,98014.44
2022-08-17T00:37:37.815Z,98012.81
2022-08-17T00:40:05.025Z,98013.00
2022-08-17T00:42:32.157Z,98006.06
2022-08-17T00:44:59.203Z,98009.69
2022-08-17T00:47:26.479Z,98013.00
2022-08-17T00:49:54.045Z,98011.34
2022-08-17T00:52:23.066Z,98013.34
2022-08-17T00:54:51.741Z,98006.06
2022-08-17T00:57:18.773Z,98005.09
2022-08-17T00:59:47.145Z,97999.13
2022-08-17T01:02:29.975Z,98012.53
2022-08-17T01:05:01.542Z,98010.06
2022-08-17T01:07:28.609Z,98008.25
2022-08-17T01:09:55.722Z,98004.97
2022-08-17T01:12:23.182Z,98003.16
2022-08-17T01:14:50.495Z,98007.41
2022-08-17T01:17:17.606Z,98010.25
2022-08-17T01:19:45.302Z,98019.78
2022-08-17T01:22:12.357Z,98021.81
2022-08-17T01:24:39.398Z,98009.44
2022-08-17T01:27:10.611Z,98012.88
2022-08-17T01:29:37.835Z,98011.25
2022-08-17T01:32:04.884Z,98003.34
2022-08-17T01:34:43.402Z,98006.16
2022-08-17T01:37:17.422Z,97999.25
2022-08-17T01:39:44.612Z,98001.88
2022-08-17T01:42:12.254Z,98004.72
2022-08-17T01:44:41.107Z,97996.00
2022-08-17T01:47:08.166Z,97996.16
2022-08-17T01:49:35.239Z,98003.25
2022-08-17T01:52:02.514Z,98005.88
2022-08-17T01:54:29.581Z,98010.16
2022-08-17T01:56:56.628Z,97997.78
2022-08-17T01:59:23.685Z,98006.53
2022-08-17T02:01:50.900Z,98007.72
2022-08-17T02:04:17.986Z,98006.69
2022-08-17T02:06:54.248Z,98001.44
2022-08-17T02:09:23.314Z,97996.50
2022-08-17T02:11:52.884Z,97992.25
2022-08-17T02:14:21.192Z,97994.06
2022-08-17T02:16:48.221Z,97990.63
2022-08-17T02:19:15.836Z,97994.06
2022-08-17T02:21:42.951Z,97991.63
2022-08-17T02:24:10.890Z,97987.19
2022-08-17T02:26:37.936Z,97992.44
2022-08-17T02:29:05.036Z,97984.53
2022-08-17T02:31:32.158Z,97984.69
2022-08-17T02:34:04.222Z,97985.72
2022-08-17T02:36:32.133Z,97980.44
2022-08-17T02:39:00.159Z,97980.44
2022-08-17T02:41:27.809Z,97979.78
2022-08-17T02:43:54.872Z,97982.25
2022-08-17T02:46:22.589Z,97972.72
2022-08-17T02:48:49.715Z,97967.63
2022-08-17T02:51:16.772Z,97968.63
2022-08-17T02:53:43.826Z,97963.16
2022-08-17T02:56:10.886Z,97959.91
2022-08-17T02:58:37.936Z,97957.88
2022-08-17T03:01:05.050Z,97960.72
2022-08-17T03:03:32.110Z,97959.25
2022-08-17T03:05:59.192Z,97962.91
2022-08-17T03:08:26.301Z,97963.72
2022-08-17T03:10:53.325Z,97970.00
2022-08-17T03:13:20.963Z,97962.72
2022-08-17T03:15:48.481Z,97959.25
2022-08-17T03:18:24.280Z,97966.53
2022-08-17T03:20:52.890Z,97961.28
2022-08-17T03:23:24.290Z,97964.53
2022-08-17T03:25:53.406Z,97961.44
2022-08-17T03:28:20.758Z,97951.91
2022-08-17T03:30:47.853Z,97963.25
2022-08-17T03:33:16.225Z,97961.63
2022-08-17T03:35:43.286Z,97961.44
2022-08-17T03:38:10.360Z,97964.28
2022-08-17T03:40:56.819Z,97970.72
2022-08-17T03:43:24.478Z,97965.44
2022-08-17T03:46:23.711Z,97970.53
2022-08-17T03:49:16.250Z,97974.97
2022-08-17T03:52:02.176Z,97964.28
2022-08-17T03:54:47.833Z,97967.06
2022-08-17T03:57:14.828Z,97971.53
2022-08-17T03:59:41.956Z,97969.09
2022-08-17T04:02:09.828Z,97973.09
2022-08-17T04:04:36.872Z,97969.81
2022-08-17T04:07:03.931Z,97975.72
2022-08-17T04:09:31.100Z,97968.81
2022-08-17T04:12:04.484Z,97972.06
2022-08-17T04:14:52.149Z,97979.16
2022-08-17T04:17:20.898Z,97988.69
2022-08-17T04:19:48.085Z,97992.34
2022-08-17T04:22:32.400Z,97994.34
2022-08-17T04:25:01.100Z,97994.34
2022-08-17T04:27:28.185Z,97997.97
2022-08-17T04:29:56.109Z,98005.06
2022-08-17T04:33:05.321Z,98005.25
2022-08-17T04:35:10.438Z,98015.59
2022-08-17T04:37:37.468Z,98022.69
2022-08-17T04:40:27.251Z,98005.06
2022-08-17T04:43:00.822Z,98001.78
2022-08-17T04:45:28.179Z,98010.53
2022-08-17T04:47:59.525Z,98013.16
2022-08-17T04:50:26.573Z,98005.25
2022-08-17T04:52:53.725Z,98005.41
2022-08-17T04:55:20.946Z,98007.25
2022-08-17T04:57:47.984Z,98015.34
2022-08-17T05:00:15.048Z,98007.44
2022-08-17T05:02:49.847Z,98014.34
2022-08-17T05:05:17.664Z,98014.53
2022-08-17T05:07:44.880Z,98016.16
2022-08-17T05:10:11.925Z,98013.53
2022-08-17T05:12:39.046Z,98019.59
2022-08-17T05:15:06.104Z,98023.41
2022-08-17T05:17:33.148Z,98023.41
2022-08-17T05:20:00.346Z,98026.03
2022-08-17T05:22:27.390Z,98030.50
2022-08-17T05:24:55.625Z,98025.06
2022-08-17T05:27:23.496Z,98024.41
2022-08-17T05:29:50.678Z,98024.75
2022-08-17T05:32:39.625Z,98030.03
2022-08-17T05:35:07.204Z,98030.22
2022-08-17T05:37:34.278Z,98030.03
2022-08-17T05:40:01.450Z,98034.50
2022-08-17T05:42:28.564Z,98034.50
2022-08-17T05:44:55.600Z,98035.31
2022-08-17T05:47:22.636Z,98017.88
2022-08-17T05:49:49.693Z,98021.31
2022-08-17T05:52:18.887Z,98018.69
2022-08-17T05:54:47.382Z,98021.31
2022-08-17T05:57:14.446Z,98023.13
2022-08-17T05:59:41.587Z,98020.50
2022-08-17T06:02:08.654Z,98023.94
2022-08-17T06:04:35.794Z,98029.22
2022-08-17T06:07:02.918Z,98027.25
2022-08-17T06:09:33.669Z,98019.50
2022-08-17T06:12:01.125Z,98020.50
2022-08-17T06:14:29.634Z,98022.13
2022-08-17T06:16:56.690Z,98011.59
2022-08-17T06:19:23.730Z,98016.50
2022-08-17T06:21:51.448Z,98010.44
2022-08-17T06:24:18.532Z,98011.44
2022-08-17T06:26:45.608Z,98012.25
2022-08-17T06:29:18.672Z,98007.94
2022-08-17T06:31:46.102Z,98023.59
2022-08-17T06:34:13.224Z,98020.16
2022-08-17T06:36:40.300Z,98024.59
2022-08-17T06:39:07.631Z,98020.97
2022-08-17T06:41:37.836Z,98023.41
2022-08-17T06:44:05.109Z,98025.22
2022-08-17T06:46:32.149Z,98019.13
2022-08-17T06:48:59.176Z,98020.97
2022-08-17T06:51:26.232Z,98026.84
2022-08-17T06:53:53.282Z,98023.41
2022-08-17T06:56:20.371Z,98021.59
2022-08-17T06:58:48.339Z,98024.22
2022-08-17T07:01:15.473Z,98030.16
2022-08-17T07:03:42.632Z,98031.97
2022-08-17T07:06:09.756Z,98031.97
2022-08-17T07:08:38.074Z,98034.25
2022-08-17T07:11:05.130Z,98027.97
2022-08-17T07:13:32.243Z,98031.41
2022-08-17T07:15:59.284Z,98040.94
2022-08-17T07:18:26.352Z,98041.75
2022-08-17T07:20:54.148Z,98040.59
2022-08-17T07:23:21.936Z,98039.59
2022-08-17T07:25:48.994Z,98048.16
2022-08-17T07:28:17.150Z,98051.59
2022-08-17T07:30:47.344Z,98045.16
2022-08-17T07:33:14.629Z,98061.59
2022-08-17T07:35:44.102Z,98058.16
2022-08-17T07:38:25.770Z,98055.34
2022-08-17T07:40:54.869Z,98056.16
2022-08-17T07:43:23.629Z,98057.78
2022-08-17T07:46:26.420Z,98058.41
2022-08-17T07:48:53.708Z,98050.50
2022-08-17T07:51:20.764Z,98048.53
2022-08-17T07:53:47.845Z,98045.69
2022-08-17T07:56:15.792Z,98048.31
2022-08-17T07:58:42.819Z,98050.00
2022-08-17T08:01:09.880Z,98051.88
2022-08-17T08:03:36.942Z,98059.63
2022-08-17T08:06:08.010Z,98058.91
2022-08-17T08:08:35.132Z,98062.28
2022-08-17T08:11:02.234Z,98064.53
2022-08-17T08:13:30.211Z,98061.53
2022-08-17T08:15:57.260Z,98060.56
2022-08-17T08:18:39.718Z,98056.09
2022-08-17T08:21:11.540Z,98057.16
2022-08-17T08:23:39.277Z,98061.72
2022-08-17T08:26:06.963Z,98063.16
2022-08-17T08:28:35.134Z,98061.59
2022-08-17T08:31:02.217Z,98057.97
2022-08-17T08:33:29.462Z,98052.50
2022-08-17T08:35:56.502Z,98048.03
2022-08-17T08:38:23.732Z,98048.94
2022-08-17T08:40:50.780Z,98048.28
2022-08-17T08:43:17.919Z,98044.19
2022-08-17T08:45:45.964Z,98042.56
2022-08-17T08:48:45.972Z,98038.38
2022-08-17T08:51:00.080Z,98043.09
2022-08-17T08:53:27.326Z,98032.41
2022-08-17T08:55:54.418Z,98036.53
2022-08-17T08:58:31.510Z,98042.16
2022-08-17T09:01:08.958Z,98044.16
2022-08-17T09:03:52.784Z,98031.59
2022-08-17T09:06:33.496Z,98041.34
2022-08-17T09:09:06.675Z,98029.59
2022-08-17T09:11:35.655Z,98034.84
2022-08-17T09:14:28.807Z,98031.25
2022-08-17T09:16:56.445Z,98031.06
2022-08-17T09:19:30.063Z,98035.16
2022-08-17T09:21:57.574Z,98038.41
2022-08-17T09:24:24.615Z,98024.03
2022-08-17T09:26:51.661Z,98031.75
2022-08-17T09:29:24.387Z,98023.84
2022-08-17T09:31:52.608Z,98026.09
2022-08-17T09:34:19.830Z,98018.63
2022-08-17T09:36:46.936Z,98011.34
2022-08-17T09:39:17.690Z,98022.53
2022-08-17T09:41:48.933Z,98010.13
2022-08-17T09:44:23.317Z,98013.41
2022-08-17T09:46:50.958Z,98023.16
2022-08-17T09:49:21.911Z,98018.06
2022-08-17T09:51:52.285Z,98007.13
2022-08-17T09:54:37.987Z,98010.56
2022-08-17T09:57:28.166Z,98010.41
2022-08-17T09:59:52.508Z,98012.03
2022-08-17T10:02:19.583Z,98008.94
2022-08-17T10:04:47.801Z,98011.41
2022-08-17T10:07:14.842Z,98013.84
2022-08-17T10:09:41.898Z,98007.56
2022-08-17T10:12:20.280Z,98014.28
2022-08-17T10:14:53.574Z,97993.53
2022-08-17T10:17:22.320Z,97990.53
2022-08-17T10:19:49.363Z,97993.59
2022-08-17T10:22:38.199Z,97990.16
2022-08-17T10:25:30.080Z,97994.84
2022-08-17T10:28:04.805Z,97998.50
2022-08-17T10:30:31.854Z,97981.66
2022-08-17T10:32:59.277Z,97989.38
2022-08-17T10:35:26.383Z,97990.00
2022-08-17T10:37:53.483Z,97997.72
2022-08-17T10:40:20.670Z,97995.09
2022-08-17T10:42:48.946Z,97998.53
2022-08-17T10:45:16.002Z,97994.72
2022-08-17T10:47:55.218Z,97996.91
2022-08-17T10:50:23.191Z,97989.81
2022-08-17T10:52:50.319Z,97993.91
2022-08-17T10:55:17.893Z,97990.44
2022-08-17T10:57:44.976Z,97997.34
2022-08-17T11:00:14.752Z,97995.91
2022-08-17T11:02:42.260Z,98003.00
2022-08-17T11:05:09.340Z,98001.00
2022-08-17T11:07:36.403Z,98011.56
2022-08-17T11:10:03.484Z,98009.75
2022-08-17T11:12:30.568Z,98012.00
2022-08-17T11:14:58.033Z,98004.69
2022-08-17T11:17:25.087Z,97998.97
2022-08-17T11:19:52.151Z,97996.97
2022-08-17T11:22:19.256Z,97990.69
2022-08-17T11:24:47.903Z,97993.69
2022-08-17T11:27:14.962Z,98000.63
2022-08-17T11:29:42.223Z,98008.34
2022-08-17T11:32:11.556Z,98008.78
2022-08-17T11:34:38.590Z,98005.78
2022-08-17T11:37:06.141Z,98013.94
2022-08-17T11:39:33.276Z,98012.09
2022-08-17T11:42:00.576Z,98007.84
2022-08-17T11:44:27.672Z,98006.22
2022-08-17T11:47:13.527Z,98012.31
2022-08-17T11:49:59.211Z,98014.56
2022-08-17T11:52:26.257Z,98016.00
2022-08-17T11:54:53.772Z,98008.72
2022-08-17T11:57:21.560Z,98008.72
2022-08-17T11:59:48.635Z,98006.09
2022-08-17T12:02:15.688Z,98010.19
2022-08-17T12:04:47.234Z,98010.34
2022-08-17T12:07:16.058Z,98009.34
2022-08-17T12:09:43.119Z,98003.44
2022-08-17T12:12:12.523Z,98009.34
2022-08-17T12:15:08.342Z,98010.25
2022-08-17T12:17:39.462Z,98002.88
2022-08-17T12:20:15.524Z,97998.81
2022-08-17T12:22:42.596Z,97988.63
2022-08-17T12:25:10.307Z,97991.63
2022-08-17T12:28:04.574Z,97985.75
2022-08-17T12:30:24.380Z,97982.91
2022-08-17T12:32:51.493Z,97974.53
2022-08-17T12:35:18.530Z,97984.09
2022-08-17T12:37:45.919Z,97985.91
2022-08-17T12:40:13.114Z,97994.41
2022-08-17T12:42:41.481Z,97999.69
2022-08-17T12:45:08.837Z,97991.78
2022-08-17T12:47:38.922Z,97988.75
2022-08-17T12:50:08.247Z,97986.28
2022-08-17T12:52:59.669Z,97987.31
2022-08-17T12:55:33.746Z,97981.41
2022-08-17T12:58:01.877Z,97988.13
2022-08-17T13:00:29.382Z,97983.22
2022-08-17T13:02:56.422Z,97985.03
2022-08-17T13:05:23.527Z,97985.84
2022-08-17T13:07:50.879Z,97984.06
2022-08-17T13:10:18.358Z,97987.50
2022-08-17T13:12:45.406Z,97982.59
2022-08-17T13:15:12.483Z,97978.78
2022-08-17T13:17:39.527Z,97988.31
2022-08-17T13:20:06.793Z,97986.88
2022-08-17T13:22:33.919Z,97989.50
2022-08-17T13:25:03.608Z,97989.34
2022-08-17T13:27:30.945Z,97985.84
2022-08-17T13:29:59.530Z,97988.50
2022-08-17T13:32:26.583Z,97978.13
2022-08-17T13:35:13.829Z,97987.69
2022-08-17T13:37:42.625Z,97990.31
2022-08-17T13:40:10.013Z,97991.34
2022-08-17T13:42:51.951Z,97984.44
2022-08-17T13:45:35.355Z,97987.06
2022-08-17T13:48:04.024Z,97985.03
2022-08-17T13:50:31.063Z,97980.56
2022-08-17T13:52:58.539Z,97977.75
2022-08-17T13:55:25.615Z,97985.69
2022-08-17T13:58:07.115Z,97982.41
2022-08-17T14:00:35.475Z,97976.13
2022-08-17T14:03:02.527Z,97971.03
2022-08-17T14:05:29.595Z,97971.22
2022-08-17T14:07:56.654Z,97972.03
2022-08-17T14:10:23.710Z,97961.66
2022-08-17T14:12:50.918Z,97951.28
2022-08-17T14:15:18.047Z,97949.28
2022-08-17T14:17:45.117Z,97947.63
2022-08-17T14:20:12.239Z,97956.56
2022-08-17T14:22:39.364Z,97950.47
2022-08-17T14:25:10.255Z,97959.22
2022-08-17T14:27:47.479Z,97950.09
2022-08-17T14:30:20.373Z,97949.91
2022-08-17T14:32:52.047Z,97952.34
2022-08-17T14:35:19.236Z,97958.47
2022-08-17T14:37:48.085Z,97948.88
2022-08-17T14:40:15.196Z,97961.09
2022-08-17T14:42:42.291Z,97959.44
2022-08-17T14:45:29.918Z,97958.47
2022-08-17T14:47:57.444Z,97948.69
2022-08-17T14:50:24.723Z,97952.16
2022-08-17T14:52:52.284Z,97948.88
2022-08-17T14:55:20.826Z,97941.59
2022-08-17T14:57:48.499Z,97939.97
2022-08-17T15:00:16.678Z,97950.31
2022-08-17T15:02:43.711Z,97956.41
2022-08-17T15:05:10.775Z,97957.44
2022-08-17T15:07:37.894Z,97963.53
2022-08-17T15:10:04.952Z,97965.38
2022-08-17T15:12:33.771Z,97960.88
2022-08-17T15:15:01.616Z,97962.72
2022-08-17T15:17:44.838Z,97949.94
2022-08-17T15:20:14.838Z,97948.13
2022-08-17T15:22:42.256Z,97952.59
2022-08-17T15:25:09.283Z,97956.69
2022-08-17T15:27:36.315Z,97949.94
2022-08-17T15:30:03.348Z,97958.47
2022-08-17T15:32:30.459Z,97961.13
2022-08-17T15:34:57.503Z,97961.13
2022-08-17T15:37:24.651Z,97954.03
2022-08-17T15:39:51.813Z,97960.31
2022-08-17T15:42:18.951Z,97954.41
2022-08-17T15:44:45.986Z,97966.59
2022-08-17T15:47:13.019Z,97961.53
2022-08-17T15:49:40.510Z,97960.50
2022-08-17T15:52:07.552Z,97966.81
2022-08-17T15:54:35.970Z,97972.91
2022-08-17T15:57:04.615Z,97966.59
2022-08-17T15:59:31.678Z,97967.41
2022-08-17T16:03:15.145Z,97964.78
2022-08-17T16:04:46.799Z,97963.16
2022-08-17T16:07:16.242Z,97967.63
2022-08-17T16:09:43.282Z,97964.34
2022-08-17T16:12:10.340Z,97968.81
2022-08-17T16:14:37.447Z,97972.28
2022-08-17T16:17:04.664Z,97965.38
2022-08-17T16:19:33.064Z,97975.56
2022-08-17T16:22:00.153Z,97972.47
2022-08-17T16:24:27.195Z,97970.00
2022-08-17T16:26:55.520Z,97976.94
2022-08-17T16:29:22.695Z,97965.38
2022-08-17T16:31:49.914Z,97969.63
2022-08-17T16:34:18.881Z,97970.66
2022-08-17T16:36:51.747Z,97968.81
2022-08-17T16:39:23.349Z,97971.03
2022-08-17T16:41:50.446Z,97960.09
2022-08-17T16:44:17.482Z,97960.72
2022-08-17T16:46:45.506Z,97953.97
2022-08-17T16:49:35.574Z,97958.25
2022-08-17T16:52:01.729Z,97951.34
2022-08-17T16:54:28.755Z,97949.72
2022-08-17T16:56:55.795Z,97948.88
2022-08-17T16:59:31.071Z,97945.03
2022-08-17T17:02:04.927Z,97938.94
2022-08-17T17:04:35.097Z,97934.69
2022-08-17T17:07:02.570Z,97932.84
2022-08-17T17:09:29.671Z,97934.03
2022-08-17T17:11:57.102Z,97938.72
2022-08-17T17:14:25.346Z,97936.50
2022-08-17T17:16:52.493Z,97930.59
2022-08-17T17:19:19.644Z,97930.38
2022-08-17T17:22:02.298Z,97940.13
2022-08-17T17:24:29.921Z,97934.03
2022-08-17T17:26:58.312Z,97925.50
2022-08-17T17:29:25.399Z,97928.72
2022-08-17T17:31:52.474Z,97925.25
2022-08-17T17:34:19.514Z,97918.78
2022-08-17T17:36:47.072Z,97917.59
2022-08-17T17:39:14.138Z,97916.13
2022-08-17T17:41:41.188Z,97918.13
2022-08-17T17:44:08.240Z,97919.78
2022-08-17T17:46:38.046Z,97918.13
2022-08-17T17:49:06.116Z,97913.06
2022-08-17T17:52:05.221Z,97910.44
2022-08-17T17:54:20.583Z,97915.72
2022-08-17T17:56:47.638Z,97912.06
2022-08-17T17:59:14.687Z,97907.41
2022-08-17T18:01:42.128Z,97903.53
2022-08-17T18:04:20.688Z,97911.66
2022-08-17T18:06:48.170Z,97918.13
2022-08-17T18:09:17.981Z,97912.06
2022-08-17T18:11:46.583Z,97899.22
2022-08-17T18:14:18.557Z,97893.13
2022-08-17T18:16:45.606Z,97894.97
2022-08-17T18:19:13.089Z,97901.88
2022-08-17T18:21:43.987Z,97897.22
2022-08-17T18:24:11.033Z,97902.50
2022-08-17T18:26:38.158Z,97896.41
2022-08-17T18:29:07.020Z,97898.63
2022-08-17T18:31:34.053Z,97895.16
2022-08-17T18:34:01.097Z,97895.97
2022-08-17T18:36:28.147Z,97892.53
2022-08-17T18:38:55.186Z,97891.28
2022-08-17T18:41:23.729Z,97890.25
2022-08-17T18:43:52.890Z,97900.63
2022-08-17T18:46:28.969Z,97901.63
2022-08-17T18:48:59.001Z,97904.47
2022-08-17T18:51:40.409Z,97901.63
2022-08-17T18:54:09.666Z,97906.91
2022-08-17T18:56:36.712Z,97908.94
2022-08-17T18:59:04.364Z,97914.84
2022-08-17T19:01:46.984Z,97923.56
2022-08-17T19:04:18.433Z,97929.06
2022-08-17T19:06:45.484Z,97930.06
2022-08-17T19:09:12.530Z,97926.78
2022-08-17T19:11:39.742Z,97930.44
2022-08-17T19:14:06.814Z,97925.78
2022-08-17T19:16:33.854Z,97924.16
2022-08-17T19:19:00.879Z,97916.59
2022-08-17T19:21:27.986Z,97922.69
2022-08-17T19:23:55.541Z,97929.63
2022-08-17T19:26:51.375Z,97926.16
2022-08-17T19:29:09.981Z,97927.16
2022-08-17T19:31:37.035Z,97919.25
2022-08-17T19:34:04.081Z,97920.25
2022-08-17T19:36:31.130Z,97916.81
2022-08-17T19:38:58.767Z,97916.97
2022-08-17T19:41:25.802Z,97914.53
2022-08-17T19:43:52.847Z,97912.72
2022-08-17T19:46:19.963Z,97918.19
2022-08-17T19:48:47.162Z,97917.38
2022-08-17T19:51:14.730Z,97918.38
2022-08-17T19:54:04.451Z,97920.38
2022-08-17T19:56:29.833Z,97915.25
2022-08-17T19:58:57.172Z,97906.53
2022-08-17T20:01:24.298Z,97910.56
2022-08-17T20:03:51.762Z,97905.28
2022-08-17T20:06:18.808Z,97904.69
2022-08-17T20:08:45.851Z,97900.81
2022-08-17T20:11:12.888Z,97906.91
2022-08-17T20:13:39.936Z,97908.56
2022-08-17T20:16:06.967Z,97905.91
2022-08-17T20:18:38.109Z,97900.00
2022-08-17T20:21:11.015Z,97912.59
2022-08-17T20:23:47.444Z,97912.59
2022-08-17T20:26:18.605Z,97916.84
2022-08-17T20:28:46.251Z,97924.94
2022-08-17T20:31:13.295Z,97927.13
2022-08-17T20:33:40.345Z,97918.41
2022-08-17T20:36:07.384Z,97922.06
2022-08-17T20:38:36.210Z,97925.72
2022-08-17T20:41:03.912Z,97934.88
2022-08-17T20:43:30.960Z,97932.63
2022-08-17T20:45:58.029Z,97925.72
2022-08-17T20:48:37.466Z,97931.00
2022-08-17T20:51:05.816Z,97932.00
2022-08-17T20:53:32.865Z,97939.53
2022-08-17T20:55:59.912Z,97938.53
2022-08-17T20:58:29.983Z,97934.69
2022-08-17T21:01:01.539Z,97940.97
2022-08-17T21:03:51.041Z,97946.25
2022-08-17T21:06:18.803Z,97956.16
2022-08-17T21:08:47.051Z,97958.56
2022-08-17T21:11:14.091Z,97954.47
2022-08-17T21:13:41.183Z,97952.69
2022-08-17T21:16:08.231Z,97946.56
2022-08-17T21:18:38.606Z,97952.03
2022-08-17T21:21:06.414Z,97961.78
2022-08-17T21:23:33.466Z,97954.22
2022-08-17T21:26:00.979Z,97954.03
2022-08-17T21:28:30.024Z,97948.75
2022-08-17T21:31:08.992Z,97948.13
2022-08-17T21:33:36.371Z,97943.69
2022-08-17T21:36:03.406Z,97943.31
2022-08-17T21:38:34.205Z,97944.50
2022-08-17T21:41:04.391Z,97949.16
2022-08-17T21:43:32.021Z,97946.50
2022-08-17T21:45:59.085Z,97957.25
2022-08-17T21:48:27.148Z,97955.25
2022-08-17T21:50:54.191Z,97950.13
2022-08-17T21:53:21.248Z,97953.41
2022-08-17T21:55:48.274Z,97959.72
2022-08-17T21:58:15.438Z,97958.06
2022-08-17T22:00:44.688Z,97964.78
2022-08-17T22:03:11.936Z,97962.97
2022-08-17T22:05:39.058Z,97967.63
2022-08-17T22:08:06.482Z,97959.06
2022-08-17T22:10:33.542Z,97960.88
2022-08-17T22:13:00.583Z,97962.72
2022-08-17T22:15:27.988Z,97967.19
2022-08-17T22:17:55.790Z,97964.09
2022-08-17T22:20:22.827Z,97967.34
2022-08-17T22:23:08.801Z,97964.53
2022-08-17T22:25:35.984Z,97971.66
2022-08-17T22:28:03.023Z,97963.28
2022-08-17T22:30:30.082Z,97972.00
2022-08-17T22:32:57.118Z,97978.28
2022-08-17T22:35:24.165Z,97970.56
2022-08-17T22:37:51.818Z,97970.19
2022-08-17T22:40:19.055Z,97967.72
2022-08-17T22:42:47.612Z,97966.91
2022-08-17T22:45:15.040Z,97972.81
2022-08-17T22:47:48.579Z,97976.47
2022-08-17T22:50:15.675Z,97973.00
2022-08-17T22:53:01.602Z,97976.28
2022-08-17T22:55:47.564Z,97966.91
2022-08-17T22:58:33.215Z,97964.66
2022-08-17T23:01:00.198Z,97968.13
2022-08-17T23:03:28.069Z,97972.75
2022-08-17T23:05:56.681Z,97970.75
2022-08-17T23:08:24.169Z,97961.19
2022-08-17T23:10:51.356Z,97960.38
2022-08-17T23:13:18.458Z,97959.75
2022-08-17T23:15:45.883Z,97979.03
2022-08-17T23:18:12.971Z,97978.22
2022-08-17T23:20:40.063Z,97979.41
2022-08-17T23:23:07.153Z,97976.97
2022-08-17T23:25:34.214Z,97977.78
2022-08-17T23:28:01.746Z,97986.13
2022-08-17T23:30:30.503Z,97975.59
2022-08-17T23:32:59.621Z,97971.47
2022-08-17T23:35:40.461Z,97969.84
2022-08-17T23:38:08.127Z,97966.56
2022-08-17T23:40:35.265Z,97975.31
2022-08-17T23:43:05.898Z,97977.94
2022-08-17T23:45:39.971Z,97973.69
2022-08-17T23:48:07.922Z,97972.88
2022-08-17T23:50:35.035Z,97969.41
2022-08-17T23:53:03.139Z,97974.69
2022-08-17T23:55:34.542Z,97972.88
2022-08-17T23:58:01.769Z,97967.59
